Time;durP1;ratioP1;P1;durP2;ratioP2;P2;SDS_P1;SDS_P2;PMS_P1;PMS_P2;Temp;Humidity;BMP_temperature;BMP_pressure;BME280_temperature;BME280_humidity;BME280_pressure;Samples;Min_cycle;Max_cycle;Signal;HPM_P1;HPM_P2
2022/01/25 00:08:38;;;;;;;62.20;37.13;;;;;;;2.62;90.29;103419.03;5029203;28;20040;-55
2022/01/25 00:29:48;;;;;;;54.30;34.10;;;;;;;2.69;90.32;103417.91;5027943;28;20104;-56
2022/01/25 00:32:14;;;;;;;;;;;;;;;2.81;90.09;103420.06;5028932;28;20040;-55
2022/01/25 00:34:40;;;;;;;61.00;35.70;;;;;;;2.75;90.08;103426.41;5028754;28;19913;-55
2022/01/25 00:37:05;;;;;;;62.10;36.17;;;;;;;2.78;90.16;103420.16;5028596;28;20102;-56
2022/01/25 00:39:31;;;;;;;64.23;36.27;;;;;;;2.79;90.32;103427.13;5028075;28;20033;-53
2022/01/25 00:41:56;;;;;;;60.10;37.47;;;;;;;2.77;90.64;103423.72;5028976;28;20032;-56
2022/01/25 00:44:22;;;;;;;67.10;39.30;;;;;;;2.80;90.51;103419.19;5028357;28;20025;-55
2022/01/25 00:46:48;;;;;;;67.60;37.90;;;;;;;2.82;90.40;103415.66;5028726;28;20021;-55
2022/01/25 00:49:25;;;;;;;61.47;38.13;;;;;;;2.85;90.26;103420.78;5027734;28;20026;-52
2022/01/25 00:54:27;;;;;;;62.90;38.07;;;;;;;2.91;90.56;103413.56;5028657;28;20025;-55
2022/01/25 00:56:54;;;;;;;60.83;37.17;;;;;;;2.93;90.54;103416.13;5028453;28;20079;-55
2022/01/25 00:59:26;;;;;;;65.47;38.90;;;;;;;2.93;90.47;103411.75;5027542;28;20105;-55
2022/01/25 01:01:57;;;;;;;63.40;37.90;;;;;;;2.96;90.43;103408.16;5028284;28;20032;-55
2022/01/25 01:04:23;;;;;;;64.93;39.03;;;;;;;2.95;90.34;103414.31;5028134;28;20034;-55
2022/01/25 01:06:49;;;;;;;64.03;38.07;;;;;;;2.98;90.28;103422.06;5028037;28;20127;-55
2022/01/25 01:09:16;;;;;;;65.70;39.70;;;;;;;2.98;90.27;103419.44;5027214;28;20021;-55
2022/01/25 01:11:57;;;;;;;68.73;39.40;;;;;;;2.98;90.37;103411.56;5028266;28;20378;-55
2022/01/25 01:15:03;;;;;;;63.57;38.93;;;;;;;2.99;90.31;103418.53;5022896;28;20052;-54
2022/01/25 01:30:58;;;;;;;61.67;38.30;;;;;;;2.95;90.57;103422.19;5031389;28;20032;-55
2022/01/25 01:34:27;;;;;;;63.63;38.50;;;;;;;2.95;90.44;103422.19;5031669;28;20029;-53
2022/01/25 01:41:55;;;;;;;67.40;40.17;;;;;;;2.92;90.48;103420.53;5002149;28;20486;-53
2022/01/25 01:44:24;;;;;;;;;;;;;;;3.00;90.57;103420.22;5032580;28;20037;-55
2022/01/25 01:49:48;;;;;;;69.07;40.65;;;;;;;2.98;90.34;103416.81;5023193;28;20032;-52
2022/01/25 01:52:13;;;;;;;64.53;37.93;;;;;;;3.00;90.66;103428.97;5031781;28;20033;-55
2022/01/25 01:54:39;;;;;;;61.93;36.60;;;;;;;2.99;90.50;103435.13;5031890;28;20021;-54
2022/01/25 01:57:06;;;;;;;63.23;37.93;;;;;;;3.01;90.49;103420.19;5031238;28;20559;-53
2022/01/25 01:59:31;;;;;;;68.33;38.07;;;;;;;3.00;90.78;103417.59;5036989;28;20388;-55
2022/01/25 02:01:57;;;;;;;64.60;38.20;;;;;;;3.01;90.64;103416.69;5027540;28;20021;-51
2022/01/25 02:04:22;;;;;;;66.23;38.83;;;;;;;3.01;90.81;103414.94;5035926;28;20029;-53
2022/01/25 02:06:47;;;;;;;66.43;39.80;;;;;;;2.97;90.75;103404.59;5031075;28;20025;-52
2022/01/25 02:09:13;;;;;;;63.73;38.50;;;;;;;2.98;90.70;103411.56;5030927;28;20040;-52
2022/01/25 02:11:39;;;;;;;67.37;38.80;;;;;;;2.96;91.04;103411.63;5030346;28;20025;-51
2022/01/25 02:14:08;;;;;;;66.03;38.63;;;;;;;2.97;91.02;103412.47;5031106;28;20045;-54
2022/01/25 02:24:35;;;;;;;67.67;39.57;;;;;;;3.02;91.11;103402.66;5031370;28;20051;-51
2022/01/25 02:27:01;;;;;;;70.47;41.30;;;;;;;3.02;91.06;103400.03;5031474;28;20029;-55
2022/01/25 02:29:27;;;;;;;69.17;41.57;;;;;;;3.02;91.10;103392.16;5030475;28;20045;-51
2022/01/25 02:31:53;;;;;;;67.93;40.57;;;;;;;3.06;91.19;103396.38;5030883;28;20052;-54
2022/01/25 02:34:19;;;;;;;68.83;41.17;;;;;;;3.04;91.11;103395.56;5031439;28;20045;-55
2022/01/25 02:36:44;;;;;;;63.93;37.90;;;;;;;3.08;91.27;103394.53;5031287;28;20444;-51
2022/01/25 02:39:09;;;;;;;59.00;35.93;;;;;;;3.09;91.19;103393.63;5025916;28;20026;-54
2022/01/25 02:41:35;;;;;;;60.27;35.93;;;;;;;3.09;91.45;103391.00;5030179;28;20465;-53
2022/01/25 02:44:04;;;;;;;63.30;38.70;;;;;;;3.07;91.32;103395.44;5031525;28;20106;-53
2022/01/25 02:49:05;;;;;;;64.20;38.30;;;;;;;3.11;91.53;103397.03;5029388;28;20572;-54
2022/01/25 02:51:35;;;;;;;62.37;37.87;;;;;;;3.07;91.12;103396.31;5027175;28;20282;-54
2022/01/25 02:54:02;;;;;;;67.43;39.53;;;;;;;3.04;90.95;103387.69;5030254;28;20033;-53
2022/01/25 02:56:30;;;;;;;61.90;38.30;;;;;;;3.10;91.35;103393.56;5030514;28;20037;-55
2022/01/25 02:58:56;;;;;;;63.47;39.00;;;;;;;3.08;91.14;103392.78;5029356;28;20059;-55
2022/01/25 03:01:22;;;;;;;67.47;40.73;;;;;;;3.04;91.29;103387.69;5030500;28;20061;-54
2022/01/25 03:03:48;;;;;;;65.13;38.97;;;;;;;3.06;91.34;103388.50;5030128;28;20025;-54
2022/01/25 03:06:19;;;;;;;65.80;38.23;;;;;;;3.08;91.19;103390.16;5030594;28;20036;-54
2022/01/25 03:08:45;;;;;;;64.53;38.37;;;;;;;3.10;91.21;103379.59;5029324;28;20021;-51
2022/01/25 03:11:11;;;;;;;72.73;41.07;;;;;;;3.09;91.57;103381.34;5030396;28;20083;-53
2022/01/25 03:13:48;;;;;;;66.23;40.93;;;;;;;3.11;91.44;103381.28;5029966;28;20032;-54
2022/01/25 03:16:35;;;;;;;72.53;41.37;;;;;;;3.11;91.27;103376.91;5030235;28;20079;-54
2022/01/25 03:19:04;;;;;;;68.47;39.83;;;;;;;3.14;91.41;103372.44;5028909;28;20037;-52
2022/01/25 03:23:56;;;;;;;66.13;39.93;;;;;;;3.09;91.12;103370.84;5029611;28;20133;-54
2022/01/25 03:26:23;;;;;;;65.53;41.23;;;;;;;3.06;91.08;103368.34;5030038;28;20029;-54
2022/01/25 03:28:49;;;;;;;69.97;41.00;;;;;;;3.09;91.36;103376.09;5029149;28;20029;-55
2022/01/25 03:31:15;;;;;;;63.70;38.20;;;;;;;3.07;91.13;103372.69;5029307;28;20061;-56
2022/01/25 03:33:41;;;;;;;65.07;40.27;;;;;;;3.03;91.02;103357.13;5026484;28;20032;-55
2022/01/25 03:36:07;;;;;;;71.60;41.53;;;;;;;3.04;91.25;103358.81;5028871;28;20041;-53
2022/01/25 03:38:37;;;;;;;68.37;41.03;;;;;;;3.02;91.23;103353.63;5028585;28;20485;-55
2022/01/25 03:41:06;;;;;;;;;;;;;;;3.07;91.44;103369.19;5028756;28;20033;-53
2022/01/25 03:43:32;;;;;;;74.18;42.72;;;;;;;2.99;91.20;103373.91;5029804;28;19974;-51
2022/01/25 03:46:06;;;;;;;78.83;43.90;;;;;;;2.97;91.27;103368.72;5029506;28;20473;-51
2022/01/25 03:50:57;;;;;;;70.20;40.77;;;;;;;2.96;91.42;103366.16;5021366;28;20033;-54
2022/01/25 03:53:22;;;;;;;76.37;43.30;;;;;;;3.00;91.51;103373.84;5030766;28;20492;-54
2022/01/25 03:55:48;;;;;;;77.53;44.20;;;;;;;3.01;91.65;103377.31;5030443;28;20029;-52
2022/01/25 03:58:14;;;;;;;82.00;43.90;;;;;;;3.02;91.34;103379.03;5028773;28;20037;-53
2022/01/25 04:00:41;;;;;;;77.97;43.23;;;;;;;3.01;91.26;103369.44;5027834;28;20054;-52
2022/01/25 04:03:16;;;;;;;84.50;44.37;;;;;;;3.03;91.61;103363.22;5029753;28;20025;-51
2022/01/25 04:08:09;;;;;;;75.33;43.53;;;;;;;3.06;91.47;103375.38;5029743;28;20088;-52
2022/01/25 04:10:34;;;;;;;77.00;43.33;;;;;;;3.07;91.42;103377.94;5027858;28;20033;-55
2022/01/25 04:13:00;;;;;;;71.90;40.97;;;;;;;3.08;91.32;103384.03;5029669;28;20029;-54
2022/01/25 04:15:26;;;;;;;77.30;42.67;;;;;;;3.09;91.42;103380.50;5028965;28;20029;-54
2022/01/25 04:18:01;;;;;;;76.10;42.97;;;;;;;3.08;91.57;103381.41;5029323;28;20059;-53
2022/01/25 04:20:31;;;;;;;77.80;43.47;;;;;;;3.06;91.16;103378.00;5028281;28;20032;-51
2022/01/25 04:25:41;;;;;;;82.43;44.77;;;;;;;2.92;91.32;103359.31;5023494;28;20044;-55
2022/01/25 04:28:06;;;;;;;81.17;44.57;;;;;;;2.89;91.39;103368.16;5028396;28;20025;-53
2022/01/25 04:30:31;;;;;;;77.63;44.97;;;;;;;2.91;91.63;103371.59;5028029;28;20017;-54
2022/01/25 04:33:15;;;;;;;76.50;43.47;;;;;;;2.93;91.50;103358.41;5029126;28;20485;-54
2022/01/25 04:49:45;;;;;;;79.33;44.10;;;;;;;3.08;91.70;103358.63;5023493;28;20102;-54
2022/01/25 04:52:15;;;;;;;84.37;44.20;;;;;;;3.09;91.40;103360.34;5029100;28;20029;-53
2022/01/25 04:57:32;;;;;;;83.33;45.60;;;;;;;3.08;91.52;103358.63;5028289;28;20408;-55
2022/01/25 05:00:19;;;;;;;86.27;46.37;;;;;;;3.08;91.23;103357.78;5030694;28;20369;-52
2022/01/25 05:02:52;;;;;;;83.27;45.33;;;;;;;3.07;91.14;103356.06;5022143;28;20029;-52
2022/01/25 05:05:30;;;;;;;80.77;44.60;;;;;;;3.08;91.35;103349.91;5024538;28;20572;-53
2022/01/25 05:08:03;;;;;;;83.43;45.37;;;;;;;3.07;91.34;103348.19;5028594;28;20056;-55
2022/01/25 05:10:32;;;;;;;92.80;47.60;;;;;;;3.04;91.35;103332.56;5027504;28;20029;-55
2022/01/25 05:13:42;;;;;;;80.60;43.83;;;;;;;3.16;91.41;103355.72;5028198;28;20517;-55
2022/01/25 05:18:49;;;;;;;81.17;43.67;;;;;;;3.17;91.49;103344.28;5027551;28;20052;-51
2022/01/25 05:23:59;;;;;;;84.47;46.23;;;;;;;3.21;91.52;103347.66;5028473;28;20064;-54
2022/01/25 05:26:26;;;;;;;86.03;47.83;;;;;;;3.19;91.46;103337.22;5027793;28;20536;-52
2022/01/25 05:28:52;;;;;;;84.67;45.37;;;;;;;3.19;91.18;103350.34;5027245;28;20418;-56
2022/01/25 05:31:17;;;;;;;90.50;47.13;;;;;;;3.19;91.08;103346.88;5028134;28;20041;-56
2022/01/25 05:33:42;;;;;;;90.13;46.60;;;;;;;3.22;90.86;103354.63;5027935;28;20018;-53
2022/01/25 05:36:08;;;;;;;87.23;47.10;;;;;;;3.21;91.15;103342.41;5028472;28;20030;-55
2022/01/25 05:38:33;;;;;;;84.03;46.00;;;;;;;3.24;91.11;103352.81;5027491;28;20022;-51
2022/01/25 05:41:01;;;;;;;86.83;46.67;;;;;;;3.24;90.93;103340.53;5028514;28;20544;-55
2022/01/25 05:46:17;;;;;;;89.20;46.40;;;;;;;3.26;90.88;103336.06;5027931;28;20447;-56
2022/01/25 05:48:43;;;;;;;81.83;44.60;;;;;;;3.28;90.98;103334.22;5027518;28;20017;-51
2022/01/25 05:51:09;;;;;;;78.37;43.73;;;;;;;3.26;90.82;103341.31;5028008;28;20029;-55
2022/01/25 05:53:35;;;;;;;78.97;43.57;;;;;;;3.27;91.08;103340.41;5028319;28;20545;-53
2022/01/25 05:56:01;;;;;;;83.57;44.37;;;;;;;3.29;91.01;103338.56;5027651;28;20157;-54
2022/01/25 05:58:26;;;;;;;80.80;43.07;;;;;;;3.30;90.92;103344.66;5030204;28;20071;-53
2022/01/25 06:00:51;;;;;;;78.97;42.20;;;;;;;3.26;90.98;103340.47;5027298;28;20026;-53
2022/01/25 06:03:16;;;;;;;80.20;43.33;;;;;;;3.26;91.16;103338.69;5027924;28;20036;-55
2022/01/25 06:05:42;;;;;;;78.53;43.17;;;;;;;3.28;90.94;103341.25;5028420;28;20026;-55
2022/01/25 06:08:07;;;;;;;80.57;44.63;;;;;;;3.28;90.87;103342.09;5028068;28;20018;-55
2022/01/25 06:10:33;;;;;;;83.47;44.93;;;;;;;3.27;91.02;103348.28;5027377;28;20638;-56
2022/01/25 06:12:59;;;;;;;83.13;45.97;;;;;;;3.25;90.96;103347.47;5028042;28;20053;-55
2022/01/25 06:15:24;;;;;;;82.97;45.40;;;;;;;3.23;90.64;103357.19;5032967;28;20360;-56
2022/01/25 06:17:50;;;;;;;80.87;43.67;;;;;;;3.23;90.80;103351.09;5032764;28;20024;-56
2022/01/25 06:20:16;;;;;;;86.13;45.17;;;;;;;3.24;90.97;103347.53;5031504;28;20546;-56
2022/01/25 06:22:42;;;;;;;84.10;45.37;;;;;;;3.25;90.98;103344.84;5032450;28;20527;-55
2022/01/25 06:25:10;;;;;;;88.37;44.93;;;;;;;3.26;90.80;103335.22;5031859;28;20056;-56
2022/01/25 06:27:39;;;;;;;88.87;47.83;;;;;;;3.27;90.92;103337.78;5031374;28;20530;-55
2022/01/25 06:30:07;;;;;;;89.50;45.50;;;;;;;3.24;90.81;103342.28;5030592;28;20028;-56
2022/01/25 06:32:32;;;;;;;85.30;46.23;;;;;;;3.25;90.91;103339.59;5031708;28;20032;-55
2022/01/25 06:34:57;;;;;;;85.77;45.37;;;;;;;3.27;91.11;103350.91;5031170;28;20040;-55
2022/01/25 06:37:22;;;;;;;91.23;47.37;;;;;;;3.30;90.72;103342.03;5027747;28;20425;-55
2022/01/25 06:39:49;;;;;;;90.10;46.90;;;;;;;3.30;90.90;103342.91;5029808;28;20037;-55
2022/01/25 06:42:15;;;;;;;98.33;49.33;;;;;;;3.29;90.81;103338.56;5032075;28;20017;-55
2022/01/25 06:44:40;;;;;;;97.33;49.90;;;;;;;3.31;90.50;103339.34;5031169;28;20021;-56
2022/01/25 06:47:06;;;;;;;97.70;50.33;;;;;;;3.31;90.52;103341.97;5031820;28;20094;-54
2022/01/25 06:49:31;;;;;;;97.97;49.37;;;;;;;3.34;90.72;103344.47;5029911;28;20010;-53
2022/01/25 06:51:58;;;;;;;93.70;48.57;;;;;;;3.35;90.56;103346.19;5031869;28;20024;-53
2022/01/25 06:54:23;;;;;;;93.83;48.30;;;;;;;3.35;90.43;103342.72;5030883;28;20108;-54
2022/01/25 06:56:48;;;;;;;95.30;49.73;;;;;;;3.35;90.61;103347.97;5031126;28;20104;-53
2022/01/25 06:59:15;;;;;;;99.30;50.40;;;;;;;3.35;90.47;103351.44;5031067;28;20025;-55
2022/01/25 07:01:40;;;;;;;87.63;46.97;;;;;;;3.33;90.46;103349.78;5030906;28;20097;-55
2022/01/25 07:04:05;;;;;;;94.83;47.77;;;;;;;3.31;90.21;103343.75;5032414;28;20033;-55
2022/01/25 07:06:31;;;;;;;99.80;47.93;;;;;;;3.34;90.01;103360.22;5029957;28;20029;-55
2022/01/25 07:08:57;;;;;;;92.80;48.13;;;;;;;3.32;90.13;103359.44;5025685;28;20110;-55
2022/01/25 07:11:23;;;;;;;93.90;46.03;;;;;;;3.36;90.26;103357.53;5030706;28;20025;-55
2022/01/25 07:13:49;;;;;;;96.33;49.57;;;;;;;3.37;90.01;103364.50;5030894;28;20322;-55
2022/01/25 07:16:15;;;;;;;92.37;48.43;;;;;;;3.37;90.29;103364.50;5026151;28;20264;-55
2022/01/25 07:18:40;;;;;;;92.83;48.23;;;;;;;3.39;90.16;103354.78;5029830;28;20527;-56
2022/01/25 07:21:06;;;;;;;91.37;47.63;;;;;;;3.38;90.21;103360.97;5030160;28;20029;-54
2022/01/25 07:23:31;;;;;;;94.23;48.40;;;;;;;3.33;89.97;103365.56;5030850;28;20028;-51
2022/01/25 07:25:57;;;;;;;95.37;48.27;;;;;;;3.33;90.04;103362.91;5029193;28;20029;-54
2022/01/25 07:28:22;;;;;;;94.80;48.33;;;;;;;3.34;90.03;103365.50;5026876;28;20030;-55
2022/01/25 07:30:47;;;;;;;93.67;48.20;;;;;;;3.33;89.71;103374.28;5016074;28;20060;-53
2022/01/25 07:33:13;;;;;;;91.73;46.73;;;;;;;3.35;89.92;103367.19;5026879;28;20033;-54
2022/01/25 07:35:40;;;;;;;95.97;48.87;;;;;;;3.35;90.16;103366.34;5030612;28;20021;-54
2022/01/25 07:38:06;;;;;;;100.73;49.77;;;;;;;3.33;89.82;103369.03;5028112;28;20032;-55
2022/01/25 07:40:34;;;;;;;100.90;50.60;;;;;;;3.32;90.29;103375.19;5041067;28;20056;-56
2022/01/25 07:42:59;;;;;;;94.03;48.57;;;;;;;3.35;90.06;103361.94;5041699;28;20024;-52
2022/01/25 07:45:25;;;;;;;95.77;48.87;;;;;;;3.39;89.96;103370.56;5021585;28;20025;-54
2022/01/25 07:47:50;;;;;;;98.87;49.80;;;;;;;3.40;90.04;103365.22;5030135;28;20021;-53
2022/01/25 07:50:16;;;;;;;104.27;51.50;;;;;;;3.41;89.78;103374.81;5029005;28;20033;-54
2022/01/25 07:52:41;;;;;;;97.87;48.47;;;;;;;3.43;89.69;103372.97;5032973;28;20078;-55
2022/01/25 07:55:08;;;;;;;98.53;49.53;;;;;;;3.44;89.73;103368.59;5031832;28;20031;-52
2022/01/25 07:57:33;;;;;;;120.00;55.60;;;;;;;3.44;89.48;103365.97;5029609;28;20021;-52
2022/01/25 07:59:59;;;;;;;118.03;55.27;;;;;;;3.45;89.26;103370.28;5029405;28;20035;-53
2022/01/25 08:02:24;;;;;;;115.43;56.40;;;;;;;3.45;89.29;103372.06;5023665;28;20033;-53
2022/01/25 08:04:50;;;;;;;119.27;57.67;;;;;;;3.44;89.24;103365.97;5028598;28;20031;-54
2022/01/25 08:07:16;;;;;;;120.23;56.90;;;;;;;3.48;88.95;103371.97;5029577;28;20401;-55
2022/01/25 08:09:41;;;;;;;109.73;54.23;;;;;;;3.46;88.60;103364.13;5028500;28;20040;-55
2022/01/25 08:12:07;;;;;;;110.50;54.10;;;;;;;3.49;88.60;103365.81;5028743;28;20526;-54
2022/01/25 08:14:32;;;;;;;108.33;53.67;;;;;;;3.49;88.56;103368.44;5029055;28;20028;-55
2022/01/25 08:16:58;;;;;;;109.10;53.83;;;;;;;3.51;88.94;103370.06;5028805;28;20025;-54
2022/01/25 08:19:23;;;;;;;108.43;52.40;;;;;;;3.53;88.74;103377.88;5027944;28;20033;-51
2022/01/25 08:21:49;;;;;;;118.73;55.53;;;;;;;3.54;88.57;103379.59;5027391;28;20489;-56
2022/01/25 08:24:18;;;;;;;113.53;55.00;;;;;;;3.55;88.78;103383.94;5029141;28;20033;-55
2022/01/25 08:26:44;;;;;;;120.32;57.67;;;;;;;3.55;88.74;103383.94;5028629;28;20021;-51
2022/01/25 08:29:10;;;;;;;116.77;55.47;;;;;;;3.57;88.64;103379.47;5027943;28;20049;-54
2022/01/25 08:31:36;;;;;;;125.40;58.57;;;;;;;3.57;88.49;103377.69;5031947;28;20461;-53
2022/01/25 08:34:02;;;;;;;117.53;57.70;;;;;;;3.59;88.19;103380.25;5028976;28;20041;-54
2022/01/25 08:36:28;;;;;;;122.83;59.47;;;;;;;3.60;88.16;103379.34;5027708;28;20029;-55
2022/01/25 08:38:54;;;;;;;125.50;59.67;;;;;;;3.60;87.89;103380.19;5026880;28;20422;-54
2022/01/25 08:41:20;;;;;;;126.80;58.67;;;;;;;3.62;87.96;103380.13;5020197;28;20040;-55
2022/01/25 08:43:45;;;;;;;129.83;59.13;;;;;;;3.62;88.16;103385.38;5029068;28;20033;-54
2022/01/25 08:46:11;;;;;;;138.33;65.03;;;;;;;3.61;87.84;103378.41;5028619;28;20035;-52
2022/01/25 08:48:37;;;;;;;141.13;65.80;;;;;;;3.60;87.06;103380.19;5028629;28;20100;-53
2022/01/25 08:51:02;;;;;;;136.07;64.33;;;;;;;3.62;86.76;103380.13;5028215;28;20386;-55
2022/01/25 08:53:28;;;;;;;136.70;63.93;;;;;;;3.62;86.45;103380.97;5016747;28;20037;-53
2022/01/25 08:55:53;;;;;;;141.53;64.90;;;;;;;3.63;86.12;103366.06;5028439;28;20116;-52
2022/01/25 08:58:19;;;;;;;137.13;63.80;;;;;;;3.66;86.23;103368.56;5028652;28;20037;-55
2022/01/25 09:00:44;;;;;;;142.50;66.07;;;;;;;3.69;85.95;103373.69;5028448;28;20033;-55
2022/01/25 09:03:11;;;;;;;139.70;64.77;;;;;;;3.71;85.86;103390.25;5028287;28;20033;-54
2022/01/25 09:05:37;;;;;;;137.63;64.27;;;;;;;3.74;85.99;103384.88;5028943;28;20036;-51
2022/01/25 09:08:04;;;;;;;142.57;64.33;;;;;;;3.74;85.54;103384.88;5028568;28;20021;-54
2022/01/25 09:10:29;;;;;;;134.77;63.40;;;;;;;3.75;85.23;103381.31;5027877;28;20564;-53
2022/01/25 09:12:55;;;;;;;133.67;64.73;;;;;;;3.74;85.38;103390.97;5027190;28;20105;-55
2022/01/25 09:15:20;;;;;;;140.67;65.43;;;;;;;3.76;85.07;103393.56;5026160;28;20109;-56
2022/01/25 09:17:46;;;;;;;139.20;65.40;;;;;;;3.76;85.13;103397.94;5027632;28;20127;-55
2022/01/25 09:20:12;;;;;;;135.23;65.07;;;;;;;3.76;85.27;103388.31;5026122;28;20029;-56
2022/01/25 09:22:37;;;;;;;132.13;64.40;;;;;;;3.77;84.83;103397.91;5027551;28;20026;-56
2022/01/25 09:25:03;;;;;;;135.57;64.37;;;;;;;3.77;84.95;103399.69;5027368;28;20061;-55
2022/01/25 09:27:28;;;;;;;140.27;65.37;;;;;;;3.74;84.68;103400.63;5027776;28;20029;-55
2022/01/25 09:29:54;;;;;;;144.27;65.60;;;;;;;3.77;84.59;103408.41;5027162;28;20480;-56
2022/01/25 09:32:19;;;;;;;133.17;64.23;;;;;;;3.78;84.68;103407.50;5028739;28;20025;-56
2022/01/25 09:34:46;;;;;;;134.70;64.97;;;;;;;3.79;84.52;103405.72;5028230;28;20025;-56
2022/01/25 09:37:11;;;;;;;134.03;64.10;;;;;;;3.80;84.44;103407.44;5028234;28;20037;-54
2022/01/25 09:39:37;;;;;;;134.13;66.57;;;;;;;3.79;84.40;103403.09;5027483;28;20596;-56
2022/01/25 09:42:08;;;;;;;132.67;65.77;;;;;;;3.81;84.19;103406.50;5027815;28;20040;-56
2022/01/25 09:44:34;;;;;;;142.47;64.87;;;;;;;3.80;84.48;103404.81;5028404;28;20314;-56
2022/01/25 09:47:00;;;;;;;134.17;65.67;;;;;;;3.81;84.02;103401.25;5027988;28;20029;-53
2022/01/25 09:49:25;;;;;;;131.27;63.67;;;;;;;3.82;83.84;103397.72;5030125;28;20559;-57
2022/01/25 09:51:52;;;;;;;132.83;63.67;;;;;;;3.84;83.77;103406.38;5031850;28;20481;-56
2022/01/25 09:54:17;;;;;;;130.43;61.90;;;;;;;3.85;83.78;103408.09;5032220;28;20026;-56
2022/01/25 09:56:43;;;;;;;137.97;64.63;;;;;;;3.87;83.99;103407.09;5032197;28;20018;-54
2022/01/25 09:59:08;;;;;;;134.97;64.47;;;;;;;3.88;84.22;103411.44;5039551;28;20496;-56
2022/01/25 10:01:37;;;;;;;130.40;63.17;;;;;;;3.91;84.12;103418.34;5035448;28;20036;-56
2022/01/25 10:04:05;;;;;;;134.50;63.77;;;;;;;3.91;83.80;103424.44;5031671;28;20107;-55
2022/01/25 10:06:32;;;;;;;131.73;64.07;;;;;;;3.90;83.61;103422.75;5031634;28;20037;-56
2022/01/25 10:08:58;;;;;;;133.47;63.70;;;;;;;3.93;83.83;103416.50;5030670;28;20357;-55
2022/01/25 10:11:25;;;;;;;133.83;65.00;;;;;;;3.94;83.67;103408.56;5031105;28;20108;-56
2022/01/25 10:13:55;;;;;;;130.53;62.37;;;;;;;3.94;83.58;103413.81;5036488;28;20031;-55
2022/01/25 10:16:29;;;;;;;132.40;63.10;;;;;;;3.94;83.21;103416.44;5032030;28;20048;-57
2022/01/25 10:18:57;;;;;;;132.73;63.13;;;;;;;3.92;82.33;103413.03;5030122;28;20037;-56
2022/01/25 10:21:28;;;;;;;134.37;64.03;;;;;;;3.93;82.44;103412.09;5030851;28;20033;-55
2022/01/25 10:24:14;;;;;;;127.87;63.67;;;;;;;3.94;82.61;103413.81;5031396;28;20025;-56
2022/01/25 10:26:46;;;;;;;129.87;61.90;;;;;;;3.95;82.47;103419.91;5018148;28;20081;-56
2022/01/25 10:29:14;;;;;;;127.87;62.43;;;;;;;3.95;82.16;103428.66;5029510;28;20017;-54
2022/01/25 10:31:45;;;;;;;130.00;63.93;;;;;;;3.97;82.47;103415.44;5030566;28;20107;-54
2022/01/25 10:34:13;;;;;;;127.17;62.33;;;;;;;3.97;82.21;103423.34;5027684;28;20264;-56
2022/01/25 10:36:45;;;;;;;133.07;65.73;;;;;;;3.97;82.42;103416.31;5031435;28;20029;-56
2022/01/25 10:39:12;;;;;;;135.77;63.67;;;;;;;3.98;82.17;103407.50;5025240;28;20104;-54
2022/01/25 10:41:39;;;;;;;124.37;62.27;;;;;;;4.03;82.29;103415.19;5026307;28;20029;-56
2022/01/25 10:44:06;;;;;;;129.00;62.33;;;;;;;4.05;82.26;103410.75;5029665;28;20041;-55
2022/01/25 10:46:32;;;;;;;128.23;62.23;;;;;;;4.03;82.27;103408.16;5030958;28;20547;-56
2022/01/25 10:48:59;;;;;;;129.13;63.23;;;;;;;4.02;82.19;103411.69;5027214;28;20040;-56
2022/01/25 10:51:26;;;;;;;127.50;61.20;;;;;;;3.97;81.26;103410.19;5030239;28;20033;-57
2022/01/25 10:54:00;;;;;;;127.10;63.37;;;;;;;4.00;81.52;103412.69;5030109;28;20037;-56
2022/01/25 10:56:32;;;;;;;129.37;61.30;;;;;;;3.98;81.34;103410.13;5026402;28;20046;-54
2022/01/25 10:59:01;;;;;;;122.87;60.87;;;;;;;3.95;81.18;103406.78;5027875;28;20025;-55
2022/01/25 11:01:38;;;;;;;124.55;60.80;;;;;;;3.96;81.06;103411.13;5029231;28;20458;-55
2022/01/25 11:04:10;;;;;;;127.37;61.33;;;;;;;3.98;81.11;103410.13;5030954;28;20029;-55
2022/01/25 11:06:37;;;;;;;124.67;61.30;;;;;;;4.04;81.24;103414.25;5030570;28;20051;-55
2022/01/25 11:09:06;;;;;;;131.03;62.97;;;;;;;4.07;81.29;103421.19;5030040;28;20423;-56
2022/01/25 11:11:38;;;;;;;128.02;62.90;;;;;;;4.09;81.50;103424.63;5030374;28;20083;-56
2022/01/25 11:16:52;;;;;;;127.40;60.83;;;;;;;4.10;80.95;103427.19;5030903;28;20171;-56
2022/01/25 11:19:17;;;;;;;125.97;61.90;;;;;;;4.11;80.86;103417.50;5029416;28;20465;-56
2022/01/25 11:21:43;;;;;;;125.90;62.40;;;;;;;4.13;81.00;103420.94;5030354;28;20037;-56
2022/01/25 11:24:12;;;;;;;127.83;60.23;;;;;;;4.16;81.19;103423.44;5030255;28;20032;-56
2022/01/25 11:26:38;;;;;;;127.63;62.15;;;;;;;4.16;81.16;103416.38;5030716;28;20029;-55
2022/01/25 11:29:04;;;;;;;123.97;60.67;;;;;;;4.17;80.69;103420.72;5029740;28;20025;-57
2022/01/25 11:31:29;;;;;;;121.67;59.93;;;;;;;4.18;80.69;103421.59;5030425;28;20435;-56
2022/01/25 11:33:56;;;;;;;122.73;59.70;;;;;;;4.16;80.78;103408.50;5029890;28;20018;-56
2022/01/25 11:36:22;;;;;;;128.47;60.27;;;;;;;4.19;80.48;103411.00;5030547;28;20021;-55
2022/01/25 11:38:50;;;;;;;127.73;60.97;;;;;;;4.20;80.67;103414.47;5029053;28;20467;-55
2022/01/25 11:41:19;;;;;;;124.50;60.83;;;;;;;4.21;80.75;103418.81;5030152;28;20033;-53
2022/01/25 11:44:05;;;;;;;117.50;59.92;;;;;;;4.25;80.79;103415.13;5018248;28;20018;-55
2022/01/25 11:46:30;;;;;;;115.67;57.70;;;;;;;4.25;80.53;103418.63;5029833;28;20056;-56
2022/01/25 11:49:03;;;;;;;127.07;60.83;;;;;;;4.25;80.71;103420.38;5019052;28;20121;-55
2022/01/25 11:51:28;;;;;;;126.47;60.37;;;;;;;4.26;80.49;103414.22;5027876;28;20028;-57
2022/01/25 11:53:54;;;;;;;121.30;59.43;;;;;;;4.26;80.50;103415.06;5029853;28;20021;-57
2022/01/25 11:56:19;;;;;;;122.47;59.47;;;;;;;4.28;80.59;103418.47;5029644;28;20108;-56
2022/01/25 11:58:57;;;;;;;121.70;59.20;;;;;;;4.29;80.30;103417.56;5034138;28;20025;-56
2022/01/25 12:01:25;;;;;;;118.70;57.80;;;;;;;4.29;79.86;103411.44;5034983;28;20029;-54
2022/01/25 12:03:59;;;;;;;120.67;58.07;;;;;;;4.31;79.68;103409.59;5029908;28;20026;-55
2022/01/25 12:06:32;;;;;;;115.17;58.13;;;;;;;4.31;79.99;103404.34;5029144;28;20067;-57
2022/01/25 12:11:46;;;;;;;125.37;60.37;;;;;;;4.34;79.54;103401.59;5029461;28;20033;-56
2022/01/25 12:14:19;;;;;;;121.97;59.40;;;;;;;4.33;79.35;103399.88;5029742;28;20034;-56
2022/01/25 12:16:47;;;;;;;117.00;57.57;;;;;;;4.34;79.42;103398.97;5029980;28;20032;-56
2022/01/25 12:19:15;;;;;;;115.73;57.90;;;;;;;4.34;79.45;103396.34;5027646;28;20140;-56
2022/01/25 12:21:47;;;;;;;114.10;57.70;;;;;;;4.33;78.97;103394.59;5029654;28;20048;-57
2022/01/25 12:24:24;;;;;;;122.63;57.57;;;;;;;4.35;79.38;103393.66;5028942;28;20560;-57
2022/01/25 12:29:37;;;;;;;117.73;58.23;;;;;;;4.35;79.14;103392.78;5026662;28;20124;-56
2022/01/25 12:32:17;;;;;;;109.83;56.17;;;;;;;4.38;79.25;103386.53;5028484;28;20025;-54
2022/01/25 12:35:09;;;;;;;113.10;55.70;;;;;;;4.39;79.42;103383.84;5028278;28;20052;-56
2022/01/25 12:37:53;;;;;;;113.10;57.87;;;;;;;4.39;79.38;103382.97;5017265;28;20017;-57
2022/01/25 12:40:25;;;;;;;118.33;57.63;;;;;;;4.39;79.32;103378.56;5025639;28;20124;-56
2022/01/25 12:43:06;;;;;;;123.47;57.70;;;;;;;4.39;79.23;103375.94;5027546;28;20037;-56
2022/01/25 12:45:35;;;;;;;114.90;55.67;;;;;;;4.40;79.32;103369.75;5028282;28;20033;-54
2022/01/25 12:48:05;;;;;;;;;;;;;;;4.51;78.98;103374.53;5028078;28;20499;-54
2022/01/25 12:50:32;;;;;;;112.80;55.17;;;;;;;4.43;78.87;103374.03;5027885;28;19913;-56
2022/01/25 12:53:02;;;;;;;115.67;56.97;;;;;;;4.43;78.65;103368.75;5028630;28;20032;-56
2022/01/25 12:55:30;;;;;;;114.30;55.77;;;;;;;4.40;78.61;103359.22;5028921;28;20175;-56
2022/01/25 12:57:57;;;;;;;121.40;55.80;;;;;;;4.40;78.77;103367.13;5028868;28;20480;-57
2022/01/25 13:00:30;;;;;;;109.23;55.87;;;;;;;4.40;78.80;103356.59;5039830;28;20033;-56
2022/01/25 13:03:19;;;;;;;119.93;56.90;;;;;;;4.44;78.65;103355.53;5027563;28;20029;-57